createdAt,value
2017-10-29T00:02:24.719Z,10.20
2017-10-29T00:04:51.720Z,10.20
2017-10-29T00:07:18.722Z,10.20
2017-10-29T00:09:45.733Z,10.20
2017-10-29T00:12:12.739Z,10.20
2017-10-29T00:14:40.509Z,10.10
2017-10-29T00:17:08.266Z,10.10
2017-10-29T00:19:36.046Z,10.10
2017-10-29T00:22:03.062Z,10.10
2017-10-29T00:24:30.070Z,10.20
2017-10-29T00:26:57.070Z,10.10
2017-10-29T00:29:24.838Z,10.20
2017-10-29T00:31:52.603Z,10.20
2017-10-29T00:34:20.362Z,10.20
2017-10-29T00:36:48.130Z,10.20
2017-10-29T00:39:15.890Z,10.20
2017-10-29T00:41:43.660Z,10.20
2017-10-29T00:44:11.423Z,10.20
2017-10-29T00:46:39.194Z,10.20
2017-10-29T00:49:06.194Z,10.20
2017-10-29T00:51:33.190Z,10.20
2017-10-29T00:54:00.198Z,10.20
2017-10-29T00:56:27.199Z,10.30
2017-10-29T00:58:54.210Z,10.30
2017-10-29T01:01:21.985Z,10.30
2017-10-29T01:03:48.982Z,10.30
2017-10-29T01:06:15.982Z,10.40
2017-10-29T01:08:42.981Z,10.30
2017-10-29T01:11:09.985Z,10.30
2017-10-29T01:13:36.977Z,10.40
2017-10-29T01:16:03.977Z,10.40
2017-10-29T01:18:30.978Z,10.50
2017-10-29T01:20:57.967Z,10.50
2017-10-29T01:23:24.966Z,10.50
2017-10-29T01:25:51.961Z,10.50
2017-10-29T01:28:18.970Z,10.50
2017-10-29T01:30:46.735Z,10.60
2017-10-29T01:33:15.134Z,10.60
2017-10-29T01:35:42.127Z,10.60
2017-10-29T01:38:09.135Z,10.60
2017-10-29T01:40:36.126Z,10.60
2017-10-29T01:43:03.129Z,10.60
2017-10-29T01:45:30.115Z,10.60
2017-10-29T01:47:57.121Z,10.70
2017-10-29T01:50:24.146Z,10.70
2017-10-29T01:52:51.152Z,10.70
2017-10-29T01:55:18.159Z,10.70
2017-10-29T01:57:45.159Z,10.70
2017-10-29T02:00:12.917Z,10.70
2017-10-29T02:02:39.922Z,10.70
2017-10-29T02:05:06.923Z,10.80
2017-10-29T02:07:34.687Z,10.70
2017-10-29T02:10:02.459Z,10.80
2017-10-29T02:12:30.230Z,10.80
2017-10-29T02:14:57.230Z,10.80
2017-10-29T02:17:24.233Z,10.80
2017-10-29T02:19:51.230Z,10.80
2017-10-29T02:22:18.234Z,10.80
2017-10-29T02:24:45.226Z,10.80
2017-10-29T02:27:12.251Z,10.80
2017-10-29T02:29:39.238Z,10.80
2017-10-29T02:32:06.996Z,10.80
2017-10-29T02:34:34.761Z,10.70
2017-10-29T02:37:02.525Z,10.80
2017-10-29T02:39:30.286Z,10.80
2017-10-29T02:41:58.052Z,10.80
2017-10-29T02:44:25.816Z,10.80
2017-10-29T02:46:53.606Z,10.70
2017-10-29T02:49:20.611Z,10.70
2017-10-29T02:51:47.618Z,10.80
2017-10-29T02:54:14.623Z,10.80
2017-10-29T02:56:42.385Z,10.80
2017-10-29T02:59:10.143Z,10.80
2017-10-29T03:01:37.903Z,10.80
2017-10-29T03:04:05.673Z,10.80
2017-10-29T03:06:33.431Z,10.90
2017-10-29T03:09:01.201Z,10.90
2017-10-29T03:11:28.202Z,10.90
2017-10-29T03:13:55.213Z,10.90
2017-10-29T03:16:22.210Z,10.90
2017-10-29T03:18:49.225Z,10.90
2017-10-29T03:21:16.211Z,11.00
2017-10-29T03:23:43.974Z,11.20
2017-10-29T03:26:11.746Z,11.20
2017-10-29T03:28:39.510Z,11.20
2017-10-29T03:31:07.267Z,11.20
2017-10-29T03:33:35.030Z,11.20
2017-10-29T03:36:02.798Z,11.20
2017-10-29T03:38:30.564Z,11.20
2017-10-29T03:40:58.331Z,11.20
2017-10-29T03:43:26.098Z,11.20
2017-10-29T03:45:53.103Z,11.20
2017-10-29T03:48:20.096Z,11.20
2017-10-29T03:50:47.106Z,11.10
2017-10-29T03:53:14.102Z,11.10
2017-10-29T03:55:41.106Z,11.10
2017-10-29T03:58:08.866Z,11.10
2017-10-29T04:00:35.879Z,11.10
2017-10-29T04:03:02.878Z,11.10
2017-10-29T04:05:29.881Z,11.20
2017-10-29T04:07:56.878Z,11.20
2017-10-29T04:10:23.890Z,11.10
2017-10-29T04:12:50.887Z,11.10
2017-10-29T04:15:17.888Z,11.10
2017-10-29T04:17:45.660Z,11.10
2017-10-29T04:20:13.418Z,11.10
2017-10-29T04:22:41.223Z,11.10
2017-10-29T04:25:08.225Z,11.10
2017-10-29T04:27:35.991Z,11.10
2017-10-29T04:30:03.761Z,11.10
2017-10-29T04:32:31.530Z,11.00
2017-10-29T04:34:59.291Z,11.00
2017-10-29T04:37:27.058Z,11.00
2017-10-29T04:39:54.820Z,11.10
2017-10-29T04:42:22.586Z,11.00
2017-10-29T04:44:50.351Z,11.00
2017-10-29T04:47:18.363Z,11.00
2017-10-29T04:49:45.395Z,11.00
2017-10-29T04:52:12.396Z,11.00
2017-10-29T04:54:40.159Z,10.90
2017-10-29T04:57:07.927Z,10.90
2017-10-29T04:59:35.696Z,10.90
2017-10-29T05:02:03.467Z,10.90
2017-10-29T05:04:31.236Z,10.80
2017-10-29T05:06:58.229Z,10.80
2017-10-29T05:09:25.249Z,10.90
2017-10-29T05:11:52.254Z,10.90
2017-10-29T05:14:20.015Z,10.80
2017-10-29T05:16:47.789Z,10.80
2017-10-29T05:19:15.539Z,10.70
2017-10-29T05:21:42.548Z,10.70
2017-10-29T05:24:09.541Z,10.80
2017-10-29T05:26:37.329Z,10.80
2017-10-29T05:29:04.326Z,10.80
2017-10-29T05:31:31.323Z,10.80
2017-10-29T05:33:58.327Z,10.90
2017-10-29T05:36:25.338Z,10.90
2017-10-29T05:38:52.339Z,10.80
2017-10-29T05:41:20.103Z,10.90
2017-10-29T05:43:47.857Z,10.90
2017-10-29T05:46:15.610Z,10.90
2017-10-29T05:48:43.382Z,10.80
2017-10-29T05:51:11.142Z,10.90
2017-10-29T05:53:38.903Z,10.90
2017-10-29T05:56:06.659Z,11.00
2017-10-29T05:58:33.671Z,11.00
2017-10-29T06:01:00.668Z,11.00
2017-10-29T06:03:28.430Z,11.20
2017-10-29T06:05:56.190Z,11.30
2017-10-29T06:08:23.958Z,11.30
2017-10-29T06:10:51.717Z,11.30
2017-10-29T06:13:19.490Z,11.40
2017-10-29T06:15:47.245Z,11.40
2017-10-29T06:18:15.003Z,11.40
2017-10-29T06:20:42.762Z,11.50
2017-10-29T06:23:10.534Z,11.40
2017-10-29T06:25:38.306Z,11.40
2017-10-29T06:28:06.073Z,11.40
2017-10-29T06:30:33.087Z,11.40
2017-10-29T06:33:00.082Z,11.40
2017-10-29T06:35:27.090Z,11.40
2017-10-29T06:37:54.862Z,11.40
2017-10-29T06:40:22.615Z,11.40
2017-10-29T06:42:50.393Z,11.50
2017-10-29T06:45:17.421Z,11.50
2017-10-29T06:47:44.431Z,11.60
2017-10-29T06:50:11.423Z,11.80
2017-10-29T06:52:39.187Z,11.90
2017-10-29T06:55:06.945Z,12.00
2017-10-29T06:57:34.705Z,12.10
2017-10-29T07:00:02.475Z,12.10
2017-10-29T07:02:30.240Z,12.10
2017-10-29T07:04:58.006Z,12.10
2017-10-29T07:07:25.776Z,12.20
2017-10-29T07:09:53.530Z,12.30
2017-10-29T07:12:21.428Z,12.40
2017-10-29T07:14:48.430Z,12.30
2017-10-29T07:17:15.426Z,12.40
2017-10-29T07:19:42.431Z,12.50
2017-10-29T07:22:10.275Z,12.50
2017-10-29T07:24:38.076Z,12.70
2017-10-29T07:27:05.081Z,12.70
2017-10-29T07:29:32.099Z,12.70
2017-10-29T07:31:59.102Z,12.80
2017-10-29T07:34:26.874Z,12.80
2017-10-29T07:36:54.633Z,12.80
2017-10-29T07:39:22.397Z,12.80
2017-10-29T07:41:50.160Z,12.90
2017-10-29T07:44:17.938Z,12.90
2017-10-29T07:46:44.939Z,12.90
2017-10-29T07:49:11.942Z,12.90
2017-10-29T07:51:38.953Z,12.90
2017-10-29T07:54:06.710Z,12.90
2017-10-29T07:56:34.475Z,12.90
2017-10-29T07:59:02.242Z,13.00
2017-10-29T08:01:30.004Z,13.10
2017-10-29T08:03:57.779Z,13.20
2017-10-29T08:06:25.674Z,13.20
2017-10-29T08:08:52.676Z,13.30
2017-10-29T08:11:20.431Z,13.30
2017-10-29T08:13:47.447Z,13.30
2017-10-29T08:16:14.447Z,13.30
2017-10-29T08:18:42.205Z,13.40
2017-10-29T08:21:09.995Z,13.40
2017-10-29T08:23:36.997Z,13.40
2017-10-29T08:26:04.007Z,13.30
2017-10-29T08:28:30.992Z,13.40
2017-10-29T08:30:57.998Z,13.50
2017-10-29T08:33:24.989Z,13.50
2017-10-29T08:35:52.764Z,13.60
2017-10-29T08:38:20.525Z,13.60
2017-10-29T08:40:48.315Z,13.60
2017-10-29T08:43:15.316Z,13.60
2017-10-29T08:45:42.337Z,13.60
2017-10-29T08:48:09.410Z,13.70
2017-10-29T08:50:36.418Z,13.60
2017-10-29T08:53:03.413Z,13.70
2017-10-29T08:55:31.183Z,13.70
2017-10-29T08:57:58.942Z,13.70
2017-10-29T09:00:27.219Z,13.80
2017-10-29T09:02:55.028Z,13.60
2017-10-29T09:05:22.027Z,13.60
2017-10-29T09:07:49.791Z,13.50
2017-10-29T09:10:17.550Z,13.50
2017-10-29T09:12:45.315Z,13.40
2017-10-29T09:15:13.070Z,13.40
2017-10-29T09:17:40.074Z,13.30
2017-10-29T09:20:07.067Z,13.40
2017-10-29T09:22:34.834Z,13.20
2017-10-29T09:25:02.599Z,13.20
2017-10-29T09:27:30.371Z,12.20
2017-10-29T09:29:57.366Z,12.20
2017-10-29T09:32:24.660Z,11.60
2017-10-29T09:34:52.415Z,10.90
2017-10-29T09:37:20.190Z,10.80
2017-10-29T09:39:47.946Z,10.50
2017-10-29T09:42:15.720Z,10.50
2017-10-29T09:44:43.483Z,10.50
2017-10-29T09:47:11.457Z,10.50
2017-10-29T09:49:38.454Z,10.50
2017-10-29T09:52:05.456Z,10.50
2017-10-29T09:54:32.470Z,10.50
2017-10-29T09:56:59.476Z,10.50
2017-10-29T09:59:26.469Z,10.50
2017-10-29T10:01:54.238Z,10.60
2017-10-29T10:04:21.990Z,10.60
2017-10-29T10:06:49.755Z,10.60
2017-10-29T10:09:17.525Z,10.60
2017-10-29T10:11:45.282Z,10.50
2017-10-29T10:14:13.054Z,10.60
2017-10-29T10:16:40.822Z,10.70
2017-10-29T10:19:07.833Z,10.70
2017-10-29T10:21:34.835Z,10.70
2017-10-29T10:24:01.851Z,10.70
2017-10-29T10:26:29.618Z,10.70
2017-10-29T10:28:57.413Z,10.70
2017-10-29T10:31:24.412Z,10.70
2017-10-29T10:33:51.521Z,10.80
2017-10-29T10:36:18.531Z,10.70
2017-10-29T10:38:45.677Z,10.80
2017-10-29T10:41:13.448Z,10.80
2017-10-29T10:43:40.491Z,10.70
2017-10-29T10:46:07.484Z,10.70
2017-10-29T10:48:34.508Z,10.70
2017-10-29T10:51:01.505Z,10.70
2017-10-29T10:53:29.275Z,10.80
2017-10-29T10:55:57.035Z,10.80
2017-10-29T10:58:25.026Z,10.80
2017-10-29T11:00:52.066Z,10.80
2017-10-29T11:03:19.131Z,10.70
2017-10-29T11:05:46.128Z,10.70
2017-10-29T11:08:13.133Z,10.70
2017-10-29T11:10:40.122Z,10.70
2017-10-29T11:13:07.124Z,10.80
2017-10-29T11:15:34.127Z,10.90
2017-10-29T11:18:01.887Z,11.10
2017-10-29T11:20:29.719Z,11.20
2017-10-29T11:22:56.728Z,11.20
2017-10-29T11:25:23.737Z,11.30
2017-10-29T11:27:50.735Z,11.40
2017-10-29T11:30:17.730Z,11.50
2017-10-29T11:32:45.485Z,11.40
2017-10-29T11:35:12.492Z,11.40
2017-10-29T11:37:39.496Z,11.50
2017-10-29T11:40:07.256Z,11.60
2017-10-29T11:42:35.026Z,11.60
2017-10-29T11:45:02.824Z,11.70
2017-10-29T11:47:29.819Z,11.60
2017-10-29T11:49:56.844Z,11.70
2017-10-29T11:52:24.000Z,11.80
2017-10-29T11:54:50.996Z,11.70
2017-10-29T11:57:18.042Z,11.80
2017-10-29T11:59:45.055Z,11.90
2017-10-29T12:02:12.059Z,11.90
2017-10-29T12:04:39.058Z,11.80
2017-10-29T12:07:06.932Z,11.90
2017-10-29T12:09:34.122Z,11.90
2017-10-29T12:12:01.394Z,12.10
2017-10-29T12:14:28.403Z,12.10
2017-10-29T12:16:56.376Z,12.10
2017-10-29T12:19:23.395Z,12.10
2017-10-29T12:21:50.417Z,12.10
2017-10-29T12:24:17.556Z,11.90
2017-10-29T12:26:44.542Z,11.80
2017-10-29T12:29:12.303Z,11.70
2017-10-29T12:31:40.110Z,11.70
2017-10-29T12:34:07.120Z,11.70
2017-10-29T12:36:34.882Z,11.70
2017-10-29T12:39:02.647Z,11.90
2017-10-29T12:41:29.654Z,11.90
2017-10-29T12:43:56.654Z,12.10
2017-10-29T12:46:24.422Z,12.40
2017-10-29T12:48:52.398Z,12.50
2017-10-29T12:51:20.182Z,12.60
2017-10-29T12:53:47.195Z,12.50
2017-10-29T12:56:14.964Z,12.00
2017-10-29T12:58:42.722Z,11.80
2017-10-29T13:01:10.972Z,11.80
2017-10-29T13:03:37.964Z,11.80
2017-10-29T13:06:05.874Z,12.00
2017-10-29T13:08:32.878Z,12.00
2017-10-29T13:11:00.941Z,12.80
2017-10-29T13:13:27.980Z,12.80
2017-10-29T13:15:55.748Z,13.60
2017-10-29T13:18:23.514Z,13.70
2017-10-29T13:20:51.358Z,13.90
2017-10-29T13:23:19.281Z,13.80
2017-10-29T13:25:46.288Z,13.80
2017-10-29T13:28:13.300Z,14.00
2017-10-29T13:30:40.298Z,14.00
2017-10-29T13:33:08.405Z,13.60
2017-10-29T13:35:36.288Z,13.60
2017-10-29T13:38:03.762Z,13.60
2017-10-29T13:40:31.288Z,13.50
2017-10-29T13:42:58.491Z,13.40
2017-10-29T13:45:26.508Z,13.60
2017-10-29T13:47:53.973Z,13.60
2017-10-29T13:50:22.346Z,13.10
2017-10-29T13:52:49.448Z,13.00
2017-10-29T13:55:17.222Z,13.40
2017-10-29T13:57:44.986Z,13.40
2017-10-29T14:00:12.751Z,13.20
2017-10-29T14:02:40.522Z,13.20
2017-10-29T14:05:08.309Z,13.20
2017-10-29T14:07:36.063Z,13.50
2017-10-29T14:10:03.066Z,13.50
2017-10-29T14:12:30.075Z,13.50
2017-10-29T14:14:57.081Z,13.20
2017-10-29T14:17:24.090Z,13.10
2017-10-29T14:19:51.127Z,13.10
2017-10-29T14:22:18.125Z,13.20
2017-10-29T14:24:45.130Z,13.00
2017-10-29T14:27:12.127Z,12.80
2017-10-29T14:29:39.891Z,12.50
2017-10-29T14:32:07.655Z,12.30
2017-10-29T14:34:35.426Z,12.20
2017-10-29T14:37:03.187Z,12.10
2017-10-29T14:39:30.948Z,12.00
2017-10-29T14:41:58.718Z,12.10
2017-10-29T14:44:26.482Z,12.00
2017-10-29T14:46:54.366Z,11.80
2017-10-29T14:49:21.375Z,11.80
2017-10-29T14:51:48.375Z,11.80
2017-10-29T14:54:15.370Z,11.80
2017-10-29T14:56:42.369Z,11.90
2017-10-29T14:59:09.371Z,11.90
2017-10-29T15:01:36.376Z,12.00
2017-10-29T15:04:03.391Z,11.90
2017-10-29T15:06:30.395Z,11.80
2017-10-29T15:08:57.398Z,11.70
2017-10-29T15:11:24.404Z,11.80
2017-10-29T15:13:51.406Z,11.70
2017-10-29T15:16:18.419Z,11.70
2017-10-29T15:18:45.415Z,11.60
2017-10-29T15:21:12.421Z,11.60
2017-10-29T15:23:39.540Z,11.50
2017-10-29T15:26:07.299Z,11.40
2017-10-29T15:28:35.058Z,11.40
2017-10-29T15:31:02.985Z,11.50
2017-10-29T15:33:30.177Z,11.40
2017-10-29T15:35:57.387Z,11.50
2017-10-29T15:38:24.390Z,11.40
2017-10-29T15:40:51.395Z,11.40
2017-10-29T15:43:18.408Z,11.30
2017-10-29T15:45:45.406Z,11.30
2017-10-29T15:48:13.169Z,11.10
2017-10-29T15:50:40.937Z,11.10
2017-10-29T15:53:08.701Z,11.00
2017-10-29T15:55:36.468Z,10.90
2017-10-29T15:58:04.238Z,10.90
2017-10-29T16:00:32.019Z,10.80
2017-10-29T16:02:59.030Z,10.70
2017-10-29T16:05:26.030Z,10.80
2017-10-29T16:07:53.062Z,10.80
2017-10-29T16:10:20.091Z,10.80
2017-10-29T16:12:47.114Z,10.80
2017-10-29T16:15:14.127Z,10.70
2017-10-29T16:17:41.147Z,10.60
2017-10-29T16:20:08.146Z,10.50
2017-10-29T16:22:35.158Z,10.50
2017-10-29T16:25:02.149Z,10.40
2017-10-29T16:27:29.922Z,10.30
2017-10-29T16:29:57.691Z,10.10
2017-10-29T16:32:25.453Z,10.10
2017-10-29T16:34:53.214Z,10.00
2017-10-29T16:37:20.991Z,10.00
2017-10-29T16:39:47.983Z,9.90
2017-10-29T16:42:14.978Z,9.90
2017-10-29T16:44:41.974Z,9.90
2017-10-29T16:47:08.965Z,9.80
2017-10-29T16:49:35.963Z,9.60
2017-10-29T16:52:02.962Z,9.50
2017-10-29T16:54:29.957Z,9.40
2017-10-29T16:56:56.962Z,9.50
2017-10-29T16:59:24.022Z,9.40
2017-10-29T17:01:51.082Z,9.40
2017-10-29T17:04:18.075Z,9.40
2017-10-29T17:06:45.830Z,9.30
2017-10-29T17:09:13.587Z,9.00
2017-10-29T17:11:40.578Z,8.90
2017-10-29T17:14:07.623Z,8.90
2017-10-29T17:16:34.617Z,8.90
2017-10-29T17:19:01.749Z,8.80
2017-10-29T17:21:29.721Z,8.70
2017-10-29T17:23:57.525Z,8.70
2017-10-29T17:26:25.278Z,8.70
2017-10-29T17:28:53.044Z,8.80
2017-10-29T17:31:20.811Z,8.80
2017-10-29T17:33:48.575Z,8.80
2017-10-29T17:36:16.448Z,8.60
2017-10-29T17:38:44.211Z,8.50
2017-10-29T17:41:11.967Z,8.50
2017-10-29T17:43:39.851Z,8.60
2017-10-29T17:46:06.844Z,8.50
2017-10-29T17:48:33.966Z,8.60
2017-10-29T17:51:01.018Z,8.60
2017-10-29T17:53:28.024Z,8.60
2017-10-29T17:55:55.782Z,8.50
2017-10-29T17:58:23.547Z,8.40
2017-10-29T18:00:51.310Z,8.30
2017-10-29T18:03:18.319Z,8.30
2017-10-29T18:05:45.316Z,8.30
2017-10-29T18:08:13.260Z,8.20
2017-10-29T18:10:41.044Z,8.20
2017-10-29T18:13:08.847Z,8.20
2017-10-29T18:15:35.843Z,8.20
2017-10-29T18:18:02.835Z,8.30
2017-10-29T18:20:29.858Z,8.30
2017-10-29T18:22:57.912Z,8.30
2017-10-29T18:25:25.673Z,8.30
2017-10-29T18:27:53.438Z,8.20
2017-10-29T18:30:21.205Z,8.10
2017-10-29T18:32:48.979Z,8.10
2017-10-29T18:35:16.554Z,8.00
2017-10-29T18:37:43.548Z,8.10
2017-10-29T18:40:10.565Z,7.90
2017-10-29T18:42:37.556Z,7.80
2017-10-29T18:45:05.333Z,7.80
2017-10-29T18:47:33.094Z,7.80
2017-10-29T18:50:00.851Z,7.80
2017-10-29T18:52:28.905Z,7.70
2017-10-29T18:54:55.955Z,7.70
2017-10-29T18:57:22.954Z,7.60
2017-10-29T18:59:49.955Z,7.60
2017-10-29T19:02:17.723Z,7.70
2017-10-29T19:04:45.496Z,7.70
2017-10-29T19:07:13.249Z,7.70
2017-10-29T19:09:41.018Z,7.60
2017-10-29T19:12:08.778Z,7.70
2017-10-29T19:14:36.655Z,7.70
2017-10-29T19:17:03.662Z,7.60
2017-10-29T19:19:30.661Z,7.60
2017-10-29T19:21:57.649Z,7.60
2017-10-29T19:24:24.681Z,7.60
2017-10-29T19:26:51.711Z,7.50
2017-10-29T19:29:18.695Z,7.40
2017-10-29T19:31:45.694Z,7.40
2017-10-29T19:34:12.689Z,7.40
2017-10-29T19:36:39.706Z,7.30
2017-10-29T19:39:06.968Z,7.30
2017-10-29T19:41:33.963Z,7.30
2017-10-29T19:44:00.967Z,7.30
2017-10-29T19:46:27.978Z,7.30
2017-10-29T19:48:54.978Z,7.30
2017-10-29T19:51:22.742Z,7.30
2017-10-29T19:53:50.504Z,7.30
2017-10-29T19:56:17.515Z,7.30
2017-10-29T19:58:44.516Z,7.30
2017-10-29T20:01:12.282Z,7.20
2017-10-29T20:03:39.303Z,7.20
2017-10-29T20:06:06.294Z,7.20
2017-10-29T20:08:33.295Z,7.20
2017-10-29T20:11:00.305Z,7.10
2017-10-29T20:13:27.298Z,7.10
2017-10-29T20:15:55.059Z,7.00
2017-10-29T20:18:22.820Z,7.00
2017-10-29T20:20:50.581Z,6.90
2017-10-29T20:23:18.348Z,6.90
2017-10-29T20:25:46.209Z,6.90
2017-10-29T20:28:13.980Z,6.90
2017-10-29T20:30:41.736Z,7.00
2017-10-29T20:33:08.752Z,6.90
2017-10-29T20:35:35.734Z,6.90
2017-10-29T20:38:03.524Z,6.90
2017-10-29T20:40:30.532Z,6.90
2017-10-29T20:42:57.548Z,6.90
2017-10-29T20:45:24.538Z,6.80
2017-10-29T20:47:52.298Z,6.80
2017-10-29T20:50:20.074Z,6.80
2017-10-29T20:52:47.818Z,6.60
2017-10-29T20:55:15.599Z,6.50
2017-10-29T20:57:43.362Z,6.40
2017-10-29T21:00:11.149Z,6.40
2017-10-29T21:02:38.146Z,6.30
2017-10-29T21:05:05.146Z,6.40
2017-10-29T21:07:32.145Z,6.50
2017-10-29T21:09:59.153Z,6.50
2017-10-29T21:12:26.166Z,6.40
2017-10-29T21:14:53.906Z,6.50
2017-10-29T21:17:21.672Z,6.50
2017-10-29T21:19:49.435Z,6.50
2017-10-29T21:22:17.202Z,6.40
2017-10-29T21:24:45.004Z,6.30
2017-10-29T21:27:12.006Z,6.30
2017-10-29T21:29:39.766Z,6.00
2017-10-29T21:32:07.535Z,6.00
2017-10-29T21:34:35.310Z,6.10
2017-10-29T21:37:03.069Z,6.00
2017-10-29T21:39:30.838Z,6.00
2017-10-29T21:41:58.594Z,6.00
2017-10-29T21:44:26.490Z,6.00
2017-10-29T21:46:55.129Z,6.00
2017-10-29T21:49:22.119Z,6.00
2017-10-29T21:51:49.126Z,5.90
2017-10-29T21:54:16.887Z,5.80
2017-10-29T21:56:43.897Z,5.80
2017-10-29T21:59:10.892Z,5.80
2017-10-29T22:01:38.673Z,5.50
2017-10-29T22:04:05.689Z,5.50
2017-10-29T22:06:33.452Z,5.30
2017-10-29T22:09:01.214Z,5.20
2017-10-29T22:11:28.211Z,5.10
2017-10-29T22:13:55.223Z,5.10
2017-10-29T22:16:22.983Z,5.00
2017-10-29T22:18:50.770Z,5.00
2017-10-29T22:21:17.774Z,4.90
2017-10-29T22:23:44.767Z,5.00
2017-10-29T22:26:11.770Z,5.00
2017-10-29T22:28:38.754Z,5.00
2017-10-29T22:31:05.767Z,5.00
2017-10-29T22:33:32.746Z,5.00
2017-10-29T22:35:59.747Z,5.00
2017-10-29T22:38:26.736Z,4.90
2017-10-29T22:40:53.759Z,4.80
2017-10-29T22:43:20.751Z,4.80
2017-10-29T22:45:47.743Z,4.90
2017-10-29T22:48:15.506Z,4.80
2017-10-29T22:50:43.269Z,4.70
2017-10-29T22:53:11.033Z,4.70
2017-10-29T22:55:38.787Z,4.60
2017-10-29T22:58:05.790Z,4.60
2017-10-29T23:00:32.779Z,4.50
2017-10-29T23:03:00.592Z,4.30
2017-10-29T23:05:33.498Z,4.30
2017-10-29T23:08:10.582Z,4.40
2017-10-29T23:10:37.579Z,4.30
2017-10-29T23:13:04.585Z,4.30
2017-10-29T23:15:31.587Z,4.30
2017-10-29T23:17:58.590Z,4.30
2017-10-29T23:20:26.366Z,4.40
2017-10-29T23:22:54.123Z,4.40
2017-10-29T23:25:21.895Z,4.40
2017-10-29T23:27:49.664Z,4.40
2017-10-29T23:30:16.683Z,4.40
2017-10-29T23:32:43.682Z,4.40
2017-10-29T23:35:10.679Z,4.50
2017-10-29T23:37:38.446Z,4.40
2017-10-29T23:40:05.456Z,4.40
2017-10-29T23:42:32.451Z,4.30
2017-10-29T23:45:00.213Z,4.00
2017-10-29T23:47:27.980Z,4.00
2017-10-29T23:49:55.734Z,3.90
2017-10-29T23:52:23.502Z,3.80
2017-10-29T23:54:51.254Z,3.80
2017-10-29T23:57:19.021Z,3.80
2017-10-29T23:59:46.774Z,3.80
